createdAt,value
2023-05-23T00:01:14.651Z,96.10
2023-05-23T00:04:18.859Z,96.40
2023-05-23T00:07:20.598Z,96.40
2023-05-23T00:10:22.956Z,96.30
2023-05-23T00:13:24.736Z,96.80
2023-05-23T00:16:26.791Z,96.30
2023-05-23T00:19:28.789Z,96.30
2023-05-23T00:22:30.752Z,96.30
2023-05-23T00:25:34.109Z,96.00
2023-05-23T00:28:37.868Z,96.30
2023-05-23T00:31:39.504Z,96.70
2023-05-23T00:34:41.178Z,96.20
2023-05-23T00:37:43.825Z,96.10
2023-05-23T00:40:45.682Z,96.00
2023-05-23T00:43:47.366Z,96.10
2023-05-23T00:46:54.980Z,96.00
2023-05-23T00:49:56.829Z,96.20
2023-05-23T00:53:04.272Z,96.00
2023-05-23T00:56:06.265Z,96.10
2023-05-23T00:59:12.948Z,95.90
2023-05-23T01:02:14.739Z,95.20
2023-05-23T01:05:19.931Z,95.90
2023-05-23T01:08:24.898Z,95.90
2023-05-23T01:11:35.968Z,95.90
2023-05-23T01:14:51.565Z,95.10
2023-05-23T01:18:01.629Z,96.00
2023-05-23T01:21:08.946Z,95.20
2023-05-23T01:24:36.369Z,96.00
2023-05-23T01:27:54.174Z,96.00
2023-05-23T01:30:58.637Z,95.80
2023-05-23T01:34:01.884Z,95.90
2023-05-23T01:37:09.794Z,96.00
2023-05-23T01:40:11.993Z,96.70
2023-05-23T01:43:16.806Z,95.70
2023-05-23T01:46:24.143Z,95.50
2023-05-23T01:49:27.514Z,96.00
2023-05-23T01:52:29.348Z,96.00
2023-05-23T01:55:31.119Z,95.80
2023-05-23T01:58:32.794Z,95.80
2023-05-23T02:01:34.862Z,96.00
2023-05-23T02:04:36.563Z,96.10
2023-05-23T02:07:38.522Z,96.00
2023-05-23T02:10:40.361Z,95.40
2023-05-23T02:13:41.966Z,96.30
2023-05-23T02:16:43.578Z,96.10
2023-05-23T02:19:45.226Z,96.10
2023-05-23T02:22:46.874Z,96.10
2023-05-23T02:25:48.543Z,98.30
2023-05-23T02:28:50.188Z,96.20
2023-05-23T02:31:51.789Z,96.20
2023-05-23T02:34:57.403Z,96.20
2023-05-23T02:37:59.836Z,96.10
2023-05-23T02:41:01.486Z,96.20
2023-05-23T02:44:03.454Z,96.10
2023-05-23T02:47:05.501Z,96.10
2023-05-23T02:50:07.772Z,96.00
2023-05-23T02:53:09.665Z,95.70
2023-05-23T02:56:11.588Z,96.00
2023-05-23T02:59:13.653Z,95.90
2023-05-23T03:02:15.679Z,96.20
2023-05-23T03:05:17.453Z,95.80
2023-05-23T03:08:19.448Z,95.80
2023-05-23T03:11:22.730Z,95.30
2023-05-23T03:14:24.514Z,95.90
2023-05-23T03:17:26.403Z,95.70
2023-05-23T03:20:28.203Z,95.80
2023-05-23T03:23:30.163Z,95.90
2023-05-23T03:26:32.465Z,96.40
2023-05-23T03:29:34.207Z,95.90
2023-05-23T03:32:36.191Z,95.90
2023-05-23T03:35:38.060Z,95.90
2023-05-23T03:38:39.880Z,95.90
2023-05-23T03:41:41.601Z,96.00
2023-05-23T03:44:44.137Z,95.90
2023-05-23T03:47:45.938Z,96.10
2023-05-23T03:50:47.797Z,96.00
2023-05-23T03:53:49.527Z,96.00
2023-05-23T03:56:51.268Z,96.20
2023-05-23T03:59:53.017Z,96.00
2023-05-23T04:02:54.874Z,96.20
2023-05-23T04:05:57.861Z,96.20
2023-05-23T04:08:59.624Z,96.50
2023-05-23T04:12:01.359Z,96.40
2023-05-23T04:15:03.949Z,96.40
2023-05-23T04:18:07.452Z,96.40
2023-05-23T04:21:09.347Z,96.70
2023-05-23T04:24:11.573Z,96.40
2023-05-23T04:27:13.685Z,96.50
2023-05-23T04:30:16.827Z,96.60
2023-05-23T04:33:18.429Z,96.40
2023-05-23T04:36:19.998Z,96.40
2023-05-23T04:39:21.693Z,96.50
2023-05-23T04:42:24.305Z,96.40
2023-05-23T04:45:26.590Z,96.50
2023-05-23T04:48:28.198Z,96.50
2023-05-23T04:51:29.866Z,96.40
2023-05-23T04:54:31.525Z,96.40
2023-05-23T04:57:35.740Z,97.10
2023-05-23T05:00:37.430Z,96.70
2023-05-23T05:03:39.270Z,96.40
2023-05-23T05:06:45.191Z,96.30
2023-05-23T05:09:46.787Z,96.00
2023-05-23T05:12:49.537Z,96.40
2023-05-23T05:15:52.747Z,97.10
2023-05-23T05:18:54.563Z,96.70
2023-05-23T05:21:57.668Z,96.50
2023-05-23T05:24:59.268Z,98.90
2023-05-23T05:28:06.084Z,96.40
2023-05-23T05:31:07.948Z,96.90
2023-05-23T05:34:09.535Z,96.90
2023-05-23T05:37:14.035Z,97.00
2023-05-23T05:40:15.695Z,97.00
2023-05-23T05:43:17.328Z,96.90
2023-05-23T05:46:18.925Z,97.00
2023-05-23T05:49:20.667Z,96.90
2023-05-23T05:52:22.484Z,97.10
2023-05-23T05:55:24.161Z,96.80
2023-05-23T05:58:25.853Z,96.80
2023-05-23T06:01:27.434Z,96.90
2023-05-23T06:04:29.089Z,96.80
2023-05-23T06:07:30.711Z,96.80
2023-05-23T06:10:32.305Z,96.70
2023-05-23T06:13:33.976Z,96.70
2023-05-23T06:16:35.668Z,96.50
2023-05-23T06:19:38.585Z,96.60
2023-05-23T06:22:40.309Z,96.60
2023-05-23T06:25:42.054Z,96.30
2023-05-23T06:28:43.648Z,97.00
2023-05-23T06:31:45.413Z,96.40
2023-05-23T06:34:47.054Z,96.70
2023-05-23T06:37:48.857Z,96.20
2023-05-23T06:40:50.405Z,96.50
2023-05-23T06:43:52.032Z,96.30
2023-05-23T06:46:58.676Z,96.30
2023-05-23T06:50:00.363Z,96.30
2023-05-23T06:53:01.913Z,96.20
2023-05-23T06:56:03.566Z,96.20
2023-05-23T06:59:05.150Z,96.10
2023-05-23T07:02:06.791Z,96.50
2023-05-23T07:05:08.672Z,96.30
2023-05-23T07:08:11.165Z,96.20
2023-05-23T07:11:13.217Z,96.20
2023-05-23T07:14:15.712Z,96.00
2023-05-23T07:17:17.453Z,96.10
2023-05-23T07:20:19.028Z,96.10
2023-05-23T07:23:22.345Z,96.00
2023-05-23T07:26:24.092Z,96.00
2023-05-23T07:29:25.770Z,96.00
2023-05-23T07:32:27.456Z,96.00
2023-05-23T07:35:29.172Z,96.20
2023-05-23T07:38:30.956Z,95.90
2023-05-23T07:41:32.604Z,95.80
2023-05-23T07:44:34.181Z,95.90
2023-05-23T07:47:35.788Z,95.80
2023-05-23T07:50:37.429Z,95.60
2023-05-23T07:53:40.024Z,96.20
2023-05-23T07:56:43.371Z,95.80
2023-05-23T07:59:44.977Z,96.00
2023-05-23T08:02:46.596Z,96.00
2023-05-23T08:05:48.266Z,96.10
2023-05-23T08:08:50.983Z,96.00
2023-05-23T08:11:52.700Z,96.20
2023-05-23T08:14:54.322Z,96.20
2023-05-23T08:17:57.459Z,96.30
2023-05-23T08:20:59.205Z,96.60
2023-05-23T08:24:00.888Z,96.30
2023-05-23T08:27:02.481Z,96.30
2023-05-23T08:30:04.990Z,96.30
2023-05-23T08:33:07.115Z,96.20
2023-05-23T08:36:08.887Z,96.40
2023-05-23T08:39:11.884Z,96.60
2023-05-23T08:42:15.789Z,96.40
2023-05-23T08:45:18.365Z,96.30
2023-05-23T08:48:21.084Z,96.60
2023-05-23T08:51:25.736Z,96.40
2023-05-23T08:54:29.395Z,96.60
2023-05-23T08:57:31.050Z,96.50
2023-05-23T09:00:34.893Z,96.20
2023-05-23T09:03:37.685Z,96.40
2023-05-23T09:06:39.272Z,96.30
2023-05-23T09:09:41.631Z,96.40
2023-05-23T09:12:43.545Z,96.40
2023-05-23T09:16:00.049Z,96.50
2023-05-23T09:19:11.341Z,96.50
2023-05-23T09:22:13.261Z,96.20
2023-05-23T09:25:15.572Z,96.20
2023-05-23T09:28:17.738Z,96.10
2023-05-23T09:31:19.652Z,96.10
2023-05-23T09:34:21.244Z,95.00
2023-05-23T09:37:29.425Z,95.50
2023-05-23T09:40:32.495Z,95.60
2023-05-23T09:43:34.442Z,95.70
2023-05-23T09:46:38.274Z,95.80
2023-05-23T09:49:41.238Z,95.90
2023-05-23T09:52:42.850Z,95.80
2023-05-23T09:55:44.607Z,96.00
2023-05-23T09:58:50.063Z,96.30
2023-05-23T10:01:53.596Z,96.30
2023-05-23T10:04:56.629Z,96.10
2023-05-23T10:08:01.623Z,96.30
2023-05-23T10:11:16.586Z,96.50
2023-05-23T10:14:18.751Z,96.50
2023-05-23T10:17:30.924Z,96.40
2023-05-23T10:20:33.458Z,96.20
2023-05-23T10:23:37.207Z,96.20
2023-05-23T10:26:38.857Z,95.60
2023-05-23T10:29:40.530Z,95.50
2023-05-23T10:32:43.109Z,95.60
2023-05-23T10:36:10.676Z,95.30
2023-05-23T10:39:25.413Z,95.10
2023-05-23T10:42:36.081Z,94.90
2023-05-23T10:45:45.356Z,93.80
2023-05-23T10:48:46.980Z,93.30
2023-05-23T10:51:52.032Z,93.60
2023-05-23T10:54:56.269Z,93.60
2023-05-23T10:58:31.277Z,94.00
2023-05-23T11:01:39.112Z,94.10
2023-05-23T11:04:41.288Z,94.00
2023-05-23T11:07:43.008Z,93.90
2023-05-23T11:10:53.623Z,93.70
2023-05-23T11:13:56.575Z,93.40
2023-05-23T11:16:58.997Z,94.80
2023-05-23T11:20:07.693Z,94.00
2023-05-23T11:23:09.479Z,93.40
2023-05-23T11:26:30.975Z,93.80
2023-05-23T11:29:32.672Z,93.50
2023-05-23T11:32:34.976Z,93.50
2023-05-23T11:35:37.293Z,93.60
2023-05-23T11:38:38.952Z,93.40
2023-05-23T11:41:42.827Z,93.30
2023-05-23T11:44:45.332Z,93.20
2023-05-23T11:47:47.257Z,93.20
2023-05-23T11:50:54.352Z,93.00
2023-05-23T11:54:04.731Z,92.90
2023-05-23T11:57:06.352Z,92.10
2023-05-23T12:00:08.819Z,92.60
2023-05-23T12:03:12.018Z,92.20
2023-05-23T12:06:19.040Z,92.20
2023-05-23T12:09:20.677Z,92.10
2023-05-23T12:12:22.458Z,91.90
2023-05-23T12:15:28.139Z,91.20
2023-05-23T12:18:32.290Z,91.30
2023-05-23T12:21:48.021Z,91.10
2023-05-23T12:24:52.756Z,91.10
2023-05-23T12:27:56.173Z,91.20
2023-05-23T12:30:57.787Z,90.90
2023-05-23T12:33:59.586Z,90.40
2023-05-23T12:40:16.860Z,90.40
2023-05-23T12:43:18.742Z,90.10
2023-05-23T12:46:25.317Z,89.90
2023-05-23T12:49:27.018Z,90.10
2023-05-23T12:52:28.630Z,90.20
2023-05-23T12:55:30.300Z,90.00
2023-05-23T12:58:32.822Z,88.30
2023-05-23T13:01:34.982Z,88.80
2023-05-23T13:04:36.720Z,89.10
2023-05-23T13:07:38.332Z,89.10
2023-05-23T13:10:40.200Z,88.10
2023-05-23T13:13:41.912Z,87.50
2023-05-23T13:16:44.994Z,87.00
2023-05-23T13:19:46.807Z,86.30
2023-05-23T13:22:49.136Z,86.70
2023-05-23T13:25:51.165Z,86.90
2023-05-23T13:28:52.884Z,86.90
2023-05-23T13:31:54.626Z,87.30
2023-05-23T13:34:56.229Z,86.40
2023-05-23T13:37:57.886Z,88.00
2023-05-23T13:40:59.526Z,86.70
2023-05-23T13:44:01.138Z,86.10
2023-05-23T13:47:15.488Z,86.00
2023-05-23T13:50:18.047Z,86.10
2023-05-23T13:53:21.410Z,84.50
2023-05-23T13:56:24.382Z,85.70
2023-05-23T13:59:26.718Z,84.90
2023-05-23T14:02:28.539Z,84.70
2023-05-23T14:05:30.131Z,83.00
2023-05-23T14:08:31.751Z,82.60
2023-05-23T14:11:33.444Z,82.90
2023-05-23T14:14:35.025Z,83.50
2023-05-23T14:17:36.750Z,83.40
2023-05-23T14:20:38.521Z,82.00
2023-05-23T14:23:40.139Z,82.90
2023-05-23T14:26:41.921Z,82.70
2023-05-23T14:29:46.528Z,81.40
2023-05-23T14:32:48.326Z,81.80
2023-05-23T14:35:51.534Z,81.50
2023-05-23T14:38:53.117Z,90.20
2023-05-23T14:41:55.332Z,83.40
2023-05-23T14:44:56.991Z,81.70
2023-05-23T14:47:58.730Z,80.00
2023-05-23T14:51:01.812Z,79.50
2023-05-23T14:54:03.533Z,81.40
2023-05-23T14:57:05.324Z,80.50
2023-05-23T15:00:09.691Z,81.00
2023-05-23T15:03:11.453Z,80.10
2023-05-23T15:06:13.175Z,81.00
2023-05-23T15:09:14.943Z,81.00
2023-05-23T15:12:16.561Z,82.00
2023-05-23T15:15:22.841Z,81.90
2023-05-23T15:18:39.011Z,81.50
2023-05-23T15:21:50.387Z,80.70
2023-05-23T15:24:52.950Z,80.30
2023-05-23T15:27:54.584Z,81.30
2023-05-23T15:30:57.085Z,80.90
2023-05-23T15:33:58.683Z,81.70
2023-05-23T15:37:00.574Z,81.20
2023-05-23T15:40:02.539Z,81.30
2023-05-23T15:43:04.324Z,80.90
2023-05-23T15:46:06.188Z,81.50
2023-05-23T15:49:21.604Z,80.60
2023-05-23T15:52:26.463Z,81.20
2023-05-23T15:55:28.173Z,79.50
2023-05-23T15:58:29.831Z,81.10
2023-05-23T16:01:32.948Z,80.50
2023-05-23T16:04:36.138Z,80.70
2023-05-23T16:07:37.761Z,80.50
2023-05-23T16:10:39.461Z,80.30
2023-05-23T16:13:41.090Z,79.30
2023-05-23T16:16:42.922Z,79.60
2023-05-23T16:19:44.659Z,79.30
2023-05-23T16:22:46.372Z,79.00
2023-05-23T16:25:48.356Z,79.00
2023-05-23T16:28:50.684Z,79.50
2023-05-23T16:31:52.344Z,79.70
2023-05-23T16:34:54.775Z,79.40
2023-05-23T16:37:56.470Z,79.20
2023-05-23T16:40:58.152Z,79.60
2023-05-23T16:43:59.782Z,79.80
2023-05-23T16:47:01.714Z,79.50
2023-05-23T16:50:04.911Z,80.40
2023-05-23T16:53:06.546Z,79.40
2023-05-23T16:56:08.128Z,80.40
2023-05-23T16:59:09.748Z,79.10
2023-05-23T17:02:14.626Z,79.60
2023-05-23T17:05:16.275Z,79.60
2023-05-23T17:08:17.875Z,79.30
2023-05-23T17:11:19.589Z,79.30
2023-05-23T17:14:21.505Z,79.60
2023-05-23T17:17:23.160Z,80.10
2023-05-23T17:20:26.641Z,79.70
2023-05-23T17:23:28.250Z,80.00
2023-05-23T17:26:29.876Z,80.50
2023-05-23T17:29:31.660Z,80.10
2023-05-23T17:32:34.244Z,80.20
2023-05-23T17:35:35.939Z,80.20
2023-05-23T17:38:38.551Z,80.50
2023-05-23T17:41:40.190Z,79.80
2023-05-23T17:44:42.007Z,79.40
2023-05-23T17:47:43.666Z,79.00
2023-05-23T17:50:45.775Z,79.20
2023-05-23T17:53:51.433Z,77.40
2023-05-23T17:56:53.841Z,74.90
2023-05-23T17:59:55.479Z,75.10
2023-05-23T18:02:57.203Z,76.10
2023-05-23T18:05:58.861Z,77.60
2023-05-23T18:09:00.479Z,78.50
2023-05-23T18:12:02.234Z,79.10
2023-05-23T18:15:04.179Z,79.70
2023-05-23T18:18:06.698Z,79.40
2023-05-23T18:21:08.649Z,80.10
2023-05-23T18:24:11.675Z,79.80
2023-05-23T18:27:13.342Z,80.60
2023-05-23T18:30:15.085Z,79.90
2023-05-23T18:33:16.841Z,79.70
2023-05-23T18:36:18.636Z,79.80
2023-05-23T18:39:20.260Z,79.60
2023-05-23T18:42:21.856Z,79.90
2023-05-23T18:45:23.451Z,80.20
2023-05-23T18:48:25.044Z,81.00
2023-05-23T18:51:29.352Z,80.40
2023-05-23T18:54:30.929Z,81.10
2023-05-23T18:57:33.221Z,80.60
2023-05-23T19:00:34.866Z,80.90
2023-05-23T19:03:37.153Z,81.00
2023-05-23T19:06:38.923Z,81.00
2023-05-23T19:09:40.616Z,81.70
2023-05-23T19:12:42.228Z,81.30
2023-05-23T19:15:45.756Z,82.10
2023-05-23T19:18:48.302Z,81.20
2023-05-23T19:21:50.969Z,81.50
2023-05-23T19:24:52.585Z,83.00
2023-05-23T19:27:54.197Z,82.30
2023-05-23T19:30:55.858Z,81.70
2023-05-23T19:33:57.460Z,82.00
2023-05-23T19:37:00.480Z,82.10
2023-05-23T19:40:02.136Z,81.80
2023-05-23T19:43:03.766Z,82.10
2023-05-23T19:46:05.865Z,81.90
2023-05-23T19:49:08.864Z,82.10
2023-05-23T19:52:10.470Z,82.90
2023-05-23T19:55:12.186Z,82.30
2023-05-23T19:58:13.908Z,82.10
2023-05-23T20:01:15.649Z,82.50
2023-05-23T20:04:17.278Z,82.00
2023-05-23T20:07:18.977Z,81.80
2023-05-23T20:10:20.752Z,82.10
2023-05-23T20:13:22.339Z,82.10
2023-05-23T20:16:24.011Z,82.40
2023-05-23T20:19:25.823Z,82.20
2023-05-23T20:22:27.733Z,82.30
2023-05-23T20:25:29.355Z,82.50
2023-05-23T20:28:31.074Z,82.60
2023-05-23T20:31:33.142Z,82.80
2023-05-23T20:34:34.807Z,82.70
2023-05-23T20:37:36.390Z,82.80
2023-05-23T20:40:38.158Z,82.90
2023-05-23T20:43:40.244Z,82.30
2023-05-23T20:46:41.903Z,83.00
2023-05-23T20:49:44.216Z,83.10
2023-05-23T20:52:45.814Z,83.30
2023-05-23T20:55:50.588Z,83.40
2023-05-23T20:58:52.181Z,83.00
2023-05-23T21:01:53.859Z,83.40
2023-05-23T21:04:55.811Z,83.50
2023-05-23T21:07:57.381Z,84.60
2023-05-23T21:10:59.047Z,83.50
2023-05-23T21:14:00.870Z,83.70
2023-05-23T21:17:02.590Z,84.20
2023-05-23T21:20:05.460Z,84.30
2023-05-23T21:23:07.035Z,84.10
2023-05-23T21:26:08.684Z,84.00
2023-05-23T21:29:10.466Z,83.60
2023-05-23T21:32:12.205Z,83.80
2023-05-23T21:35:13.784Z,84.50
2023-05-23T21:38:15.458Z,84.10
2023-05-23T21:41:17.105Z,84.30
2023-05-23T21:44:26.169Z,84.20
2023-05-23T21:47:27.884Z,84.30
2023-05-23T21:50:29.619Z,84.00
2023-05-23T21:53:31.414Z,84.10
2023-05-23T21:56:33.038Z,84.30
2023-05-23T21:59:34.604Z,84.20
2023-05-23T22:02:37.229Z,84.50
2023-05-23T22:05:38.892Z,84.60
2023-05-23T22:08:40.494Z,84.20
2023-05-23T22:11:42.432Z,84.20
2023-05-23T22:14:44.297Z,84.30
2023-05-23T22:17:46.663Z,84.20
2023-05-23T22:20:49.188Z,84.50
2023-05-23T22:23:51.949Z,84.50
2023-05-23T22:26:53.554Z,84.70
2023-05-23T22:29:55.150Z,84.70
2023-05-23T22:32:57.630Z,84.70
2023-05-23T22:35:59.261Z,84.70
2023-05-23T22:39:05.282Z,85.00
2023-05-23T22:42:07.018Z,83.50
2023-05-23T22:45:09.635Z,84.90
2023-05-23T22:48:11.732Z,84.80
2023-05-23T22:51:14.625Z,85.10
2023-05-23T22:54:18.510Z,85.10
2023-05-23T22:57:26.348Z,85.40
2023-05-23T23:00:30.418Z,85.70
2023-05-23T23:03:32.112Z,86.00
2023-05-23T23:06:33.959Z,85.60
2023-05-23T23:09:35.604Z,85.70
2023-05-23T23:12:40.309Z,85.40
2023-05-23T23:15:43.060Z,83.80
2023-05-23T23:18:46.969Z,86.10
2023-05-23T23:21:48.867Z,86.10
2023-05-23T23:24:52.764Z,85.80
2023-05-23T23:27:54.348Z,85.90
2023-05-23T23:30:56.052Z,86.00
2023-05-23T23:33:58.937Z,86.80
2023-05-23T23:37:00.631Z,85.30
2023-05-23T23:40:02.551Z,86.10
2023-05-23T23:43:04.193Z,86.10
2023-05-23T23:46:05.895Z,86.30
2023-05-23T23:49:07.578Z,86.40
2023-05-23T23:52:12.304Z,86.50
2023-05-23T23:55:13.993Z,86.70
2023-05-23T23:58:15.943Z,86.60
